sensor_id;sensor_type;location;lat;lon;timestamp;pressure;altitude;pressure_sealevel;temperature;humidity
77685;BME280;66844;46.092;18.268;2023-03-14T00:00:17;98615.78;;;7.93;61.74
77685;BME280;66844;46.092;18.268;2023-03-14T00:00:49;98618.50;;;7.91;62.02
77685;BME280;66844;46.092;18.268;2023-03-14T00:01:20;98620.31;;;7.91;61.67
77685;BME280;66844;46.092;18.268;2023-03-14T00:01:52;98609.63;;;7.92;62.21
77685;BME280;66844;46.092;18.268;2023-03-14T00:02:24;98614.94;;;7.92;61.99
77685;BME280;66844;46.092;18.268;2023-03-14T00:02:56;98608.31;;;7.99;61.17
77685;BME280;66844;46.092;18.268;2023-03-14T00:03:28;98612.84;;;7.97;61.85
77685;BME280;66844;46.092;18.268;2023-03-14T00:04:00;98619.84;;;7.98;61.65
77685;BME280;66844;46.092;18.268;2023-03-14T00:04:32;98618.91;;;7.99;61.64
77685;BME280;66844;46.092;18.268;2023-03-14T00:05:05;98611.97;;;7.97;61.47
77685;BME280;66844;46.092;18.268;2023-03-14T00:05:40;98611.16;;;7.96;61.36
77685;BME280;66844;46.092;18.268;2023-03-14T00:06:13;98617.38;;;7.95;61.48
77685;BME280;66844;46.092;18.268;2023-03-14T00:06:45;98620.91;;;7.96;61.39
77685;BME280;66844;46.092;18.268;2023-03-14T00:07:18;98611.22;;;7.95;61.61
77685;BME280;66844;46.092;18.268;2023-03-14T00:07:50;98614.63;;;7.97;61.04
77685;BME280;66844;46.092;18.268;2023-03-14T00:08:21;98626.84;;;7.99;60.42
77685;BME280;66844;46.092;18.268;2023-03-14T00:08:53;98622.41;;;8.00;61.35
77685;BME280;66844;46.092;18.268;2023-03-14T00:09:26;98619.75;;;8.00;61.17
77685;BME280;66844;46.092;18.268;2023-03-14T00:09:58;98610.31;;;7.96;61.91
77685;BME280;66844;46.092;18.268;2023-03-14T00:10:30;98619.44;;;7.90;61.56
77685;BME280;66844;46.092;18.268;2023-03-14T00:11:16;98611.69;;;7.87;62.57
77685;BME280;66844;46.092;18.268;2023-03-14T00:11:48;98622.47;;;7.84;62.72
77685;BME280;66844;46.092;18.268;2023-03-14T00:12:20;98616.41;;;7.82;61.76
77685;BME280;66844;46.092;18.268;2023-03-14T00:12:52;98615.00;;;7.91;60.41
77685;BME280;66844;46.092;18.268;2023-03-14T00:13:24;98609.16;;;8.00;60.92
77685;BME280;66844;46.092;18.268;2023-03-14T00:13:56;98607.53;;;7.97;60.72
77685;BME280;66844;46.092;18.268;2023-03-14T00:14:29;98612.63;;;8.00;60.57
77685;BME280;66844;46.092;18.268;2023-03-14T00:15:01;98607.19;;;8.03;60.53
77685;BME280;66844;46.092;18.268;2023-03-14T00:15:35;98605.84;;;7.96;61.10
77685;BME280;66844;46.092;18.268;2023-03-14T00:16:10;98613.81;;;7.96;61.34
77685;BME280;66844;46.092;18.268;2023-03-14T00:16:46;98616.72;;;8.06;60.29
77685;BME280;66844;46.092;18.268;2023-03-14T00:17:17;98612.00;;;8.11;60.12
77685;BME280;66844;46.092;18.268;2023-03-14T00:17:49;98612.84;;;8.11;59.75
77685;BME280;66844;46.092;18.268;2023-03-14T00:18:21;98614.75;;;8.09;60.42
77685;BME280;66844;46.092;18.268;2023-03-14T00:18:54;98616.53;;;8.09;60.53
77685;BME280;66844;46.092;18.268;2023-03-14T00:19:25;98619.38;;;8.06;61.35
77685;BME280;66844;46.092;18.268;2023-03-14T00:19:57;98620.22;;;8.06;60.57
77685;BME280;66844;46.092;18.268;2023-03-14T00:20:35;98616.06;;;8.02;61.34
77685;BME280;66844;46.092;18.268;2023-03-14T00:21:09;98611.91;;;7.98;61.47
77685;BME280;66844;46.092;18.268;2023-03-14T00:21:41;98606.53;;;8.00;60.47
77685;BME280;66844;46.092;18.268;2023-03-14T00:22:13;98613.41;;;8.02;60.50
77685;BME280;66844;46.092;18.268;2023-03-14T00:22:45;98608.19;;;8.01;61.01
77685;BME280;66844;46.092;18.268;2023-03-14T00:23:16;98607.25;;;8.02;60.23
77685;BME280;66844;46.092;18.268;2023-03-14T00:23:48;98606.31;;;8.03;60.96
77685;BME280;66844;46.092;18.268;2023-03-14T00:24:20;98605.56;;;8.01;61.21
77685;BME280;66844;46.092;18.268;2023-03-14T00:24:52;98609.06;;;8.01;60.87
77685;BME280;66844;46.092;18.268;2023-03-14T00:25:24;98598.47;;;8.01;60.78
77685;BME280;66844;46.092;18.268;2023-03-14T00:26:07;98601.78;;;8.05;60.09
77685;BME280;66844;46.092;18.268;2023-03-14T00:26:39;98611.44;;;8.06;60.70
77685;BME280;66844;46.092;18.268;2023-03-14T00:27:11;98604.16;;;8.09;59.99
77685;BME280;66844;46.092;18.268;2023-03-14T00:27:43;98604.06;;;8.11;60.20
77685;BME280;66844;46.092;18.268;2023-03-14T00:28:15;98603.94;;;8.12;59.46
77685;BME280;66844;46.092;18.268;2023-03-14T00:28:51;98595.16;;;8.12;59.63
77685;BME280;66844;46.092;18.268;2023-03-14T00:29:23;98600.28;;;8.15;60.17
77685;BME280;66844;46.092;18.268;2023-03-14T00:29:55;98599.50;;;8.13;60.81
77685;BME280;66844;46.092;18.268;2023-03-14T00:30:26;98601.50;;;8.09;60.96
77685;BME280;66844;46.092;18.268;2023-03-14T00:30:58;98601.56;;;8.08;60.84
77685;BME280;66844;46.092;18.268;2023-03-14T00:31:30;98599.91;;;8.07;60.86
77685;BME280;66844;46.092;18.268;2023-03-14T00:32:02;98600.84;;;8.06;61.27
77685;BME280;66844;46.092;18.268;2023-03-14T00:32:35;98600.09;;;8.04;60.96
77685;BME280;66844;46.092;18.268;2023-03-14T00:33:06;98597.53;;;8.02;60.99
77685;BME280;66844;46.092;18.268;2023-03-14T00:33:38;98596.59;;;8.03;60.11
77685;BME280;66844;46.092;18.268;2023-03-14T00:34:10;98597.13;;;8.08;60.06
77685;BME280;66844;46.092;18.268;2023-03-14T00:34:42;98597.72;;;8.13;59.75
77685;BME280;66844;46.092;18.268;2023-03-14T00:35:15;98598.44;;;8.15;59.55
77685;BME280;66844;46.092;18.268;2023-03-14T00:36:14;98600.75;;;8.21;58.62
77685;BME280;66844;46.092;18.268;2023-03-14T00:36:46;98603.13;;;8.26;58.88
77685;BME280;66844;46.092;18.268;2023-03-14T00:37:18;98599.44;;;8.28;59.08
77685;BME280;66844;46.092;18.268;2023-03-14T00:37:50;98598.38;;;8.31;59.27
77685;BME280;66844;46.092;18.268;2023-03-14T00:38:23;98610.03;;;8.28;59.19
77685;BME280;66844;46.092;18.268;2023-03-14T00:38:55;98596.78;;;8.28;58.63
77685;BME280;66844;46.092;18.268;2023-03-14T00:39:27;98604.91;;;8.40;58.47
77685;BME280;66844;46.092;18.268;2023-03-14T00:39:59;98599.63;;;8.40;58.49
77685;BME280;66844;46.092;18.268;2023-03-14T00:40:30;98602.16;;;8.41;58.89
77685;BME280;66844;46.092;18.268;2023-03-14T00:41:05;98601.50;;;8.38;58.71
77685;BME280;66844;46.092;18.268;2023-03-14T00:41:37;98598.09;;;8.36;58.42
77685;BME280;66844;46.092;18.268;2023-03-14T00:42:09;98594.41;;;8.38;58.86
77685;BME280;66844;46.092;18.268;2023-03-14T00:42:40;98599.50;;;8.41;59.06
77685;BME280;66844;46.092;18.268;2023-03-14T00:43:12;98596.69;;;8.44;57.94
77685;BME280;66844;46.092;18.268;2023-03-14T00:43:44;98598.75;;;8.53;57.39
77685;BME280;66844;46.092;18.268;2023-03-14T00:44:16;98593.34;;;8.55;57.07
77685;BME280;66844;46.092;18.268;2023-03-14T00:44:48;98595.88;;;8.56;57.79
77685;BME280;66844;46.092;18.268;2023-03-14T00:45:20;98598.66;;;8.55;57.29
77685;BME280;66844;46.092;18.268;2023-03-14T00:45:52;98599.50;;;8.55;58.07
77685;BME280;66844;46.092;18.268;2023-03-14T00:46:24;98601.50;;;8.52;58.14
77685;BME280;66844;46.092;18.268;2023-03-14T00:46:56;98596.97;;;8.40;59.26
77685;BME280;66844;46.092;18.268;2023-03-14T00:47:28;98598.19;;;8.34;59.46
77685;BME280;66844;46.092;18.268;2023-03-14T00:48:00;98599.03;;;8.35;59.50
77685;BME280;66844;46.092;18.268;2023-03-14T00:48:32;98600.84;;;8.34;58.81
77685;BME280;66844;46.092;18.268;2023-03-14T00:49:04;98594.50;;;8.22;60.34
77685;BME280;66844;46.092;18.268;2023-03-14T00:49:35;98593.75;;;8.06;61.31
77685;BME280;66844;46.092;18.268;2023-03-14T00:50:08;98594.03;;;8.02;60.94
77685;BME280;66844;46.092;18.268;2023-03-14T00:50:40;98590.44;;;8.03;60.73
77685;BME280;66844;46.092;18.268;2023-03-14T00:51:13;98591.44;;;8.00;60.69
77685;BME280;66844;46.092;18.268;2023-03-14T00:51:48;98581.72;;;8.01;60.46
77685;BME280;66844;46.092;18.268;2023-03-14T00:52:19;98586.84;;;8.04;60.56
77685;BME280;66844;46.092;18.268;2023-03-14T00:52:51;98593.63;;;8.08;60.04
77685;BME280;66844;46.092;18.268;2023-03-14T00:53:23;98589.38;;;8.05;60.29
77685;BME280;66844;46.092;18.268;2023-03-14T00:53:55;98589.50;;;8.04;59.84
77685;BME280;66844;46.092;18.268;2023-03-14T00:54:27;98586.00;;;8.03;60.34
77685;BME280;66844;46.092;18.268;2023-03-14T00:54:59;98583.44;;;8.02;59.96
77685;BME280;66844;46.092;18.268;2023-03-14T00:55:31;98588.53;;;8.05;59.96
77685;BME280;66844;46.092;18.268;2023-03-14T00:56:04;98584.19;;;8.04;59.77
77685;BME280;66844;46.092;18.268;2023-03-14T00:56:36;98582.38;;;8.04;60.40
77685;BME280;66844;46.092;18.268;2023-03-14T00:57:08;98589.66;;;8.01;60.69
77685;BME280;66844;46.092;18.268;2023-03-14T00:57:40;98592.50;;;7.98;60.66
77685;BME280;66844;46.092;18.268;2023-03-14T00:58:14;98590.72;;;7.98;60.54
77685;BME280;66844;46.092;18.268;2023-03-14T00:58:46;98592.22;;;8.02;59.52
77685;BME280;66844;46.092;18.268;2023-03-14T00:59:18;98592.16;;;8.04;60.08
77685;BME280;66844;46.092;18.268;2023-03-14T00:59:50;98587.50;;;8.07;59.67
77685;BME280;66844;46.092;18.268;2023-03-14T01:00:22;98584.75;;;8.09;59.12
77685;BME280;66844;46.092;18.268;2023-03-14T01:00:55;98587.97;;;8.14;59.39
77685;BME280;66844;46.092;18.268;2023-03-14T01:01:27;98587.31;;;8.10;59.51
77685;BME280;66844;46.092;18.268;2023-03-14T01:01:59;98585.22;;;8.15;59.22
77685;BME280;66844;46.092;18.268;2023-03-14T01:02:31;98583.91;;;8.22;58.60
77685;BME280;66844;46.092;18.268;2023-03-14T01:03:03;98590.34;;;8.18;59.57
77685;BME280;66844;46.092;18.268;2023-03-14T01:03:36;98590.44;;;8.17;59.28
77685;BME280;66844;46.092;18.268;2023-03-14T01:04:08;98584.06;;;8.19;58.73
77685;BME280;66844;46.092;18.268;2023-03-14T01:04:40;98588.72;;;8.16;59.75
77685;BME280;66844;46.092;18.268;2023-03-14T01:05:14;98585.59;;;8.09;60.40
77685;BME280;66844;46.092;18.268;2023-03-14T01:05:46;98593.28;;;8.14;59.49
77685;BME280;66844;46.092;18.268;2023-03-14T01:06:21;98578.22;;;8.14;59.31
77685;BME280;66844;46.092;18.268;2023-03-14T01:06:54;98580.50;;;8.06;59.86
77685;BME280;66844;46.092;18.268;2023-03-14T01:07:25;98576.13;;;8.05;59.98
77685;BME280;66844;46.092;18.268;2023-03-14T01:07:57;98576.81;;;8.09;59.97
77685;BME280;66844;46.092;18.268;2023-03-14T01:08:29;98575.94;;;8.08;59.83
77685;BME280;66844;46.092;18.268;2023-03-14T01:09:01;98577.47;;;8.12;59.01
77685;BME280;66844;46.092;18.268;2023-03-14T01:09:34;98574.81;;;8.12;59.21
77685;BME280;66844;46.092;18.268;2023-03-14T01:10:06;98572.16;;;8.12;59.57
77685;BME280;66844;46.092;18.268;2023-03-14T01:10:39;98575.88;;;8.10;60.34
77685;BME280;66844;46.092;18.268;2023-03-14T01:11:21;98572.56;;;8.06;60.36
77685;BME280;66844;46.092;18.268;2023-03-14T01:11:53;98568.47;;;8.01;60.65
77685;BME280;66844;46.092;18.268;2023-03-14T01:12:27;98579.72;;;8.04;60.03
77685;BME280;66844;46.092;18.268;2023-03-14T01:12:58;98580.50;;;8.06;60.24
77685;BME280;66844;46.092;18.268;2023-03-14T01:13:30;98566.22;;;8.09;59.03
77685;BME280;66844;46.092;18.268;2023-03-14T01:14:02;98566.97;;;8.11;59.50
77685;BME280;66844;46.092;18.268;2023-03-14T01:14:34;98574.06;;;8.10;59.70
77685;BME280;66844;46.092;18.268;2023-03-14T01:15:08;98566.00;;;8.12;59.01
77685;BME280;66844;46.092;18.268;2023-03-14T01:15:40;98555.53;;;8.10;58.91
77685;BME280;66844;46.092;18.268;2023-03-14T01:16:16;98564.13;;;8.14;59.30
77685;BME280;66844;46.092;18.268;2023-03-14T01:16:48;98566.66;;;8.15;59.20
77685;BME280;66844;46.092;18.268;2023-03-14T01:17:19;98564.59;;;8.20;58.11
77685;BME280;66844;46.092;18.268;2023-03-14T01:17:51;98554.44;;;8.27;57.88
77685;BME280;66844;46.092;18.268;2023-03-14T01:18:23;98563.19;;;8.29;59.01
77685;BME280;66844;46.092;18.268;2023-03-14T01:18:55;98555.41;;;8.26;58.81
77685;BME280;66844;46.092;18.268;2023-03-14T01:19:28;98556.25;;;8.26;58.33
77685;BME280;66844;46.092;18.268;2023-03-14T01:20:00;98557.41;;;8.22;59.05
77685;BME280;66844;46.092;18.268;2023-03-14T01:20:32;98557.09;;;8.27;58.42
77685;BME280;66844;46.092;18.268;2023-03-14T01:21:14;98561.28;;;8.31;58.37
77685;BME280;66844;46.092;18.268;2023-03-14T01:21:46;98552.31;;;8.34;57.86
77685;BME280;66844;46.092;18.268;2023-03-14T01:22:17;98550.97;;;8.41;57.77
77685;BME280;66844;46.092;18.268;2023-03-14T01:22:49;98551.91;;;8.40;58.04
77685;BME280;66844;46.092;18.268;2023-03-14T01:23:21;98540.47;;;8.39;57.79
77685;BME280;66844;46.092;18.268;2023-03-14T01:23:54;98539.88;;;8.34;57.82
77685;BME280;66844;46.092;18.268;2023-03-14T01:24:27;98551.91;;;8.40;57.90
77685;BME280;66844;46.092;18.268;2023-03-14T01:24:58;98554.44;;;8.41;57.58
77685;BME280;66844;46.092;18.268;2023-03-14T01:25:30;98554.78;;;8.37;58.28
77685;BME280;66844;46.092;18.268;2023-03-14T01:26:03;98551.06;;;8.39;57.50
77685;BME280;66844;46.092;18.268;2023-03-14T01:26:35;98536.47;;;8.46;57.01
77685;BME280;66844;46.092;18.268;2023-03-14T01:27:07;98543.47;;;8.47;57.25
77685;BME280;66844;46.092;18.268;2023-03-14T01:27:39;98541.47;;;8.51;57.15
77685;BME280;66844;46.092;18.268;2023-03-14T01:28:11;98528.88;;;8.54;56.67
77685;BME280;66844;46.092;18.268;2023-03-14T01:28:42;98537.94;;;8.64;56.49
77685;BME280;66844;46.092;18.268;2023-03-14T01:29:14;98534.78;;;8.72;56.70
77685;BME280;66844;46.092;18.268;2023-03-14T01:29:46;98533.06;;;8.71;56.12
77685;BME280;66844;46.092;18.268;2023-03-14T01:30:18;98525.44;;;8.66;56.43
77685;BME280;66844;46.092;18.268;2023-03-14T01:30:50;98528.81;;;8.68;55.83
77685;BME280;66844;46.092;18.268;2023-03-14T01:31:24;98527.03;;;8.69;56.86
77685;BME280;66844;46.092;18.268;2023-03-14T01:31:56;98519.81;;;8.71;56.64
77685;BME280;66844;46.092;18.268;2023-03-14T01:32:27;98527.25;;;8.78;56.12
77685;BME280;66844;46.092;18.268;2023-03-14T01:32:59;98524.75;;;8.90;55.48
77685;BME280;66844;46.092;18.268;2023-03-14T01:33:31;98520.66;;;8.98;55.24
77685;BME280;66844;46.092;18.268;2023-03-14T01:34:03;98526.16;;;8.95;55.26
77685;BME280;66844;46.092;18.268;2023-03-14T01:34:35;98524.38;;;8.96;55.83
77685;BME280;66844;46.092;18.268;2023-03-14T01:35:07;98528.91;;;8.94;55.97
77685;BME280;66844;46.092;18.268;2023-03-14T01:35:39;98523.72;;;8.92;55.99
77685;BME280;66844;46.092;18.268;2023-03-14T01:36:11;98521.78;;;8.82;56.69
77685;BME280;66844;46.092;18.268;2023-03-14T01:36:43;98530.13;;;8.75;57.11
77685;BME280;66844;46.092;18.268;2023-03-14T01:37:14;98523.97;;;8.75;57.04
77685;BME280;66844;46.092;18.268;2023-03-14T01:37:46;98528.53;;;8.73;57.69
77685;BME280;66844;46.092;18.268;2023-03-14T01:38:21;98522.66;;;8.68;56.99
77685;BME280;66844;46.092;18.268;2023-03-14T01:38:53;98519.94;;;8.69;57.69
77685;BME280;66844;46.092;18.268;2023-03-14T01:39:25;98531.38;;;8.70;56.87
77685;BME280;66844;46.092;18.268;2023-03-14T01:39:56;98526.38;;;8.65;57.46
77685;BME280;66844;46.092;18.268;2023-03-14T01:40:28;98522.78;;;8.66;56.93
77685;BME280;66844;46.092;18.268;2023-03-14T01:41:00;98515.78;;;8.65;57.63
77685;BME280;66844;46.092;18.268;2023-03-14T01:41:32;98522.88;;;8.65;57.36
77685;BME280;66844;46.092;18.268;2023-03-14T01:42:04;98521.94;;;8.66;57.17
77685;BME280;66844;46.092;18.268;2023-03-14T01:42:36;98518.50;;;8.64;56.98
77685;BME280;66844;46.092;18.268;2023-03-14T01:43:19;98517.34;;;8.55;57.49
77685;BME280;66844;46.092;18.268;2023-03-14T01:43:52;98514.19;;;8.49;57.69
77685;BME280;66844;46.092;18.268;2023-03-14T01:44:24;98530.88;;;8.51;58.05
77685;BME280;66844;46.092;18.268;2023-03-14T01:44:58;98509.59;;;8.52;57.42
77685;BME280;66844;46.092;18.268;2023-03-14T01:46:41;98508.88;;;8.63;56.96
77685;BME280;66844;46.092;18.268;2023-03-14T01:47:13;98507.63;;;8.68;56.61
77685;BME280;66844;46.092;18.268;2023-03-14T01:47:45;98511.97;;;8.69;56.74
77685;BME280;66844;46.092;18.268;2023-03-14T01:48:17;98519.81;;;8.71;56.90
77685;BME280;66844;46.092;18.268;2023-03-14T01:49:45;98503.50;;;8.77;56.18
77685;BME280;66844;46.092;18.268;2023-03-14T01:50:18;98510.53;;;8.78;56.53
77685;BME280;66844;46.092;18.268;2023-03-14T01:50:50;98506.25;;;8.75;56.72
77685;BME280;66844;46.092;18.268;2023-03-14T01:51:30;98495.13;;;8.83;55.96
77685;BME280;66844;46.092;18.268;2023-03-14T01:52:11;98498.34;;;8.88;56.41
77685;BME280;66844;46.092;18.268;2023-03-14T01:52:48;98498.56;;;8.85;56.60
77685;BME280;66844;46.092;18.268;2023-03-14T01:53:24;98492.41;;;8.85;56.50
77685;BME280;66844;46.092;18.268;2023-03-14T01:54:10;98480.94;;;8.84;56.89
77685;BME280;66844;46.092;18.268;2023-03-14T01:54:51;98485.81;;;8.77;57.38
77685;BME280;66844;46.092;18.268;2023-03-14T01:55:25;98494.19;;;8.84;56.12
77685;BME280;66844;46.092;18.268;2023-03-14T01:55:57;98492.69;;;8.80;56.87
77685;BME280;66844;46.092;18.268;2023-03-14T01:56:30;98494.41;;;8.81;56.89
77685;BME280;66844;46.092;18.268;2023-03-14T01:57:37;98498.34;;;8.88;56.30
77685;BME280;66844;46.092;18.268;2023-03-14T01:58:09;98497.72;;;8.97;55.65
77685;BME280;66844;46.092;18.268;2023-03-14T01:58:45;98500.50;;;8.96;56.41
77685;BME280;66844;46.092;18.268;2023-03-14T01:59:18;98493.47;;;8.95;56.14
77685;BME280;66844;46.092;18.268;2023-03-14T02:00:02;98495.41;;;8.93;56.30
77685;BME280;66844;46.092;18.268;2023-03-14T02:00:37;98485.53;;;8.95;55.46
77685;BME280;66844;46.092;18.268;2023-03-14T02:01:09;98491.38;;;9.00;55.00
77685;BME280;66844;46.092;18.268;2023-03-14T02:01:43;98491.81;;;9.06;55.11
77685;BME280;66844;46.092;18.268;2023-03-14T02:02:16;98491.59;;;9.09;55.78
77685;BME280;66844;46.092;18.268;2023-03-14T02:02:52;98489.59;;;9.00;55.63
77685;BME280;66844;46.092;18.268;2023-03-14T02:03:26;98497.03;;;9.08;54.86
77685;BME280;66844;46.092;18.268;2023-03-14T02:04:02;98492.53;;;9.08;54.96
77685;BME280;66844;46.092;18.268;2023-03-14T02:04:38;98494.25;;;9.09;54.94
77685;BME280;66844;46.092;18.268;2023-03-14T02:05:15;98487.88;;;9.12;54.89
77685;BME280;66844;46.092;18.268;2023-03-14T02:05:49;98492.44;;;9.10;55.67
77685;BME280;66844;46.092;18.268;2023-03-14T02:06:27;98488.09;;;9.09;55.19
77685;BME280;66844;46.092;18.268;2023-03-14T02:07:40;98480.97;;;9.09;55.60
77685;BME280;66844;46.092;18.268;2023-03-14T02:08:18;98478.97;;;9.13;55.16
77685;BME280;66844;46.092;18.268;2023-03-14T02:08:51;98477.94;;;9.15;54.97
77685;BME280;66844;46.092;18.268;2023-03-14T02:09:23;98480.16;;;9.21;54.49
77685;BME280;66844;46.092;18.268;2023-03-14T02:09:56;98481.88;;;9.22;54.59
77685;BME280;66844;46.092;18.268;2023-03-14T02:10:35;98487.19;;;9.22;54.50
77685;BME280;66844;46.092;18.268;2023-03-14T02:11:08;98485.69;;;9.18;54.51
77685;BME280;66844;46.092;18.268;2023-03-14T02:11:40;98489.06;;;9.20;54.80
77685;BME280;66844;46.092;18.268;2023-03-14T02:12:15;98485.47;;;9.21;54.71
77685;BME280;66844;46.092;18.268;2023-03-14T02:12:49;98480.03;;;9.23;54.37
77685;BME280;66844;46.092;18.268;2023-03-14T02:13:22;98484.41;;;9.24;54.72
77685;BME280;66844;46.092;18.268;2023-03-14T02:13:55;98488.97;;;9.22;54.86
77685;BME280;66844;46.092;18.268;2023-03-14T02:14:32;98476.75;;;9.07;55.45
77685;BME280;66844;46.092;18.268;2023-03-14T02:15:04;98482.25;;;9.04;55.75
77685;BME280;66844;46.092;18.268;2023-03-14T02:15:38;98485.09;;;9.01;56.41
77685;BME280;66844;46.092;18.268;2023-03-14T02:16:11;98482.13;;;8.93;55.76
77685;BME280;66844;46.092;18.268;2023-03-14T02:16:42;98480.00;;;8.85;56.38
77685;BME280;66844;46.092;18.268;2023-03-14T02:17:17;98479.66;;;8.77;56.58
77685;BME280;66844;46.092;18.268;2023-03-14T02:17:49;98478.72;;;8.78;56.43
77685;BME280;66844;46.092;18.268;2023-03-14T02:18:21;98470.28;;;8.71;57.43
77685;BME280;66844;46.092;18.268;2023-03-14T02:18:53;98470.63;;;8.67;57.10
77685;BME280;66844;46.092;18.268;2023-03-14T02:19:43;98472.91;;;8.59;57.60
77685;BME280;66844;46.092;18.268;2023-03-14T02:21:24;98462.75;;;8.65;57.28
77685;BME280;66844;46.092;18.268;2023-03-14T02:22:08;98469.44;;;8.71;57.19
77685;BME280;66844;46.092;18.268;2023-03-14T02:22:42;98476.66;;;8.69;57.30
77685;BME280;66844;46.092;18.268;2023-03-14T02:23:21;98473.34;;;8.65;57.22
77685;BME280;66844;46.092;18.268;2023-03-14T02:24:08;98470.78;;;8.64;57.30
77685;BME280;66844;46.092;18.268;2023-03-14T02:26:15;98468.78;;;8.67;57.51
77685;BME280;66844;46.092;18.268;2023-03-14T02:27:08;98475.72;;;8.70;57.69
77685;BME280;66844;46.092;18.268;2023-03-14T02:27:40;98469.75;;;8.66;57.52
77685;BME280;66844;46.092;18.268;2023-03-14T02:28:12;98469.75;;;8.66;57.50
77685;BME280;66844;46.092;18.268;2023-03-14T02:28:44;98477.72;;;8.66;57.45
77685;BME280;66844;46.092;18.268;2023-03-14T02:29:16;98469.00;;;8.64;57.23
77685;BME280;66844;46.092;18.268;2023-03-14T02:29:55;98470.78;;;8.64;57.14
77685;BME280;66844;46.092;18.268;2023-03-14T02:30:29;98463.81;;;8.63;58.16
77685;BME280;66844;46.092;18.268;2023-03-14T02:31:02;98463.03;;;8.61;57.88
77685;BME280;66844;46.092;18.268;2023-03-14T02:31:35;98463.34;;;8.56;58.09
77685;BME280;66844;46.092;18.268;2023-03-14T02:32:07;98458.38;;;8.52;58.06
77685;BME280;66844;46.092;18.268;2023-03-14T02:32:43;98462.91;;;8.50;58.56
77685;BME280;66844;46.092;18.268;2023-03-14T02:33:19;98466.41;;;8.50;58.46
77685;BME280;66844;46.092;18.268;2023-03-14T02:33:52;98469.16;;;8.49;58.56
77685;BME280;66844;46.092;18.268;2023-03-14T02:34:25;98470.13;;;8.48;58.55
77685;BME280;66844;46.092;18.268;2023-03-14T02:35:00;98463.84;;;8.49;58.31
77685;BME280;66844;46.092;18.268;2023-03-14T02:36:27;98464.91;;;8.46;58.65
77685;BME280;66844;46.092;18.268;2023-03-14T02:37:00;98470.31;;;8.45;58.68
77685;BME280;66844;46.092;18.268;2023-03-14T02:39:14;98460.75;;;8.42;58.72
77685;BME280;66844;46.092;18.268;2023-03-14T02:39:47;98469.47;;;8.44;58.43
77685;BME280;66844;46.092;18.268;2023-03-14T02:40:21;98476.44;;;8.45;58.73
77685;BME280;66844;46.092;18.268;2023-03-14T02:40:53;98472.84;;;8.46;58.59
77685;BME280;66844;46.092;18.268;2023-03-14T02:41:25;98470.41;;;8.43;58.46
77685;BME280;66844;46.092;18.268;2023-03-14T02:41:56;98462.56;;;8.42;58.75
77685;BME280;66844;46.092;18.268;2023-03-14T02:42:28;98470.50;;;8.42;58.90
77685;BME280;66844;46.092;18.268;2023-03-14T02:43:00;98464.16;;;8.44;58.64
77685;BME280;66844;46.092;18.268;2023-03-14T02:43:32;98465.03;;;8.45;58.46
77685;BME280;66844;46.092;18.268;2023-03-14T02:44:04;98468.41;;;8.47;58.62
77685;BME280;66844;46.092;18.268;2023-03-14T02:44:35;98470.97;;;8.48;58.70
77685;BME280;66844;46.092;18.268;2023-03-14T02:45:42;98471.16;;;8.45;58.66
77685;BME280;66844;46.092;18.268;2023-03-14T02:46:18;98469.56;;;8.43;59.33
77685;BME280;66844;46.092;18.268;2023-03-14T02:46:51;98465.97;;;8.44;59.26
77685;BME280;66844;46.092;18.268;2023-03-14T02:47:28;98469.56;;;8.43;58.63
77685;BME280;66844;46.092;18.268;2023-03-14T02:48:06;98465.75;;;8.47;58.41
77685;BME280;66844;46.092;18.268;2023-03-14T02:49:01;98462.38;;;8.45;58.07
77685;BME280;66844;46.092;18.268;2023-03-14T02:49:33;98452.50;;;8.47;58.33
77685;BME280;66844;46.092;18.268;2023-03-14T02:50:12;98454.94;;;8.50;58.35
77685;BME280;66844;46.092;18.268;2023-03-14T02:50:47;98449.66;;;8.50;58.51
77685;BME280;66844;46.092;18.268;2023-03-14T02:51:21;98447.84;;;8.50;58.45
77685;BME280;66844;46.092;18.268;2023-03-14T02:51:54;98451.28;;;8.52;58.10
77685;BME280;66844;46.092;18.268;2023-03-14T02:52:25;98443.41;;;8.51;58.31
77685;BME280;66844;46.092;18.268;2023-03-14T02:52:57;98447.94;;;8.49;58.08
77685;BME280;66844;46.092;18.268;2023-03-14T02:53:35;98440.00;;;8.49;57.96
77685;BME280;66844;46.092;18.268;2023-03-14T02:54:07;98455.72;;;8.52;58.12
77685;BME280;66844;46.092;18.268;2023-03-14T02:54:39;98443.19;;;8.54;57.87
77685;BME280;66844;46.092;18.268;2023-03-14T02:55:11;98444.13;;;8.53;58.40
77685;BME280;66844;46.092;18.268;2023-03-14T02:55:47;98443.19;;;8.54;58.03
77685;BME280;66844;46.092;18.268;2023-03-14T02:56:19;98439.69;;;8.53;57.80
77685;BME280;66844;46.092;18.268;2023-03-14T02:56:51;98439.69;;;8.53;57.79
77685;BME280;66844;46.092;18.268;2023-03-14T02:57:23;98439.81;;;8.52;57.90
77685;BME280;66844;46.092;18.268;2023-03-14T02:57:55;98439.81;;;8.52;58.09
77685;BME280;66844;46.092;18.268;2023-03-14T02:58:27;98440.66;;;8.52;58.04
77685;BME280;66844;46.092;18.268;2023-03-14T02:59:02;98440.84;;;8.49;58.56
77685;BME280;66844;46.092;18.268;2023-03-14T02:59:34;98446.06;;;8.51;58.14
77685;BME280;66844;46.092;18.268;2023-03-14T03:00:06;98439.91;;;8.50;57.58
77685;BME280;66844;46.092;18.268;2023-03-14T03:00:39;98434.50;;;8.52;57.88
77685;BME280;66844;46.092;18.268;2023-03-14T03:01:11;98444.13;;;8.53;57.75
77685;BME280;66844;46.092;18.268;2023-03-14T03:01:43;98435.44;;;8.51;58.11
77685;BME280;66844;46.092;18.268;2023-03-14T03:02:15;98434.59;;;8.50;58.55
77685;BME280;66844;46.092;18.268;2023-03-14T03:02:46;98428.44;;;8.50;58.36
77685;BME280;66844;46.092;18.268;2023-03-14T03:03:18;98430.06;;;8.52;57.94
77685;BME280;66844;46.092;18.268;2023-03-14T03:03:51;98428.25;;;8.53;57.55
77685;BME280;66844;46.092;18.268;2023-03-14T03:04:22;98432.72;;;8.52;58.06
77685;BME280;66844;46.092;18.268;2023-03-14T03:04:54;98438.97;;;8.51;58.11
77685;BME280;66844;46.092;18.268;2023-03-14T03:05:26;98432.91;;;8.49;58.50
77685;BME280;66844;46.092;18.268;2023-03-14T03:05:58;98435.53;;;8.49;58.26